sensor_id;sensor_type;location;lat;lon;timestamp;pressure;altitude;pressure_sealevel;temperature;humidity
63321;BME280;49449;48.800;9.534;2023-04-12T00:02:23;98095.19;;;9.56;34.18
63321;BME280;49449;48.800;9.534;2023-04-12T00:04:52;98077.31;;;9.58;34.24
63321;BME280;49449;48.800;9.534;2023-04-12T00:07:23;98077.06;;;9.59;34.18
63321;BME280;49449;48.800;9.534;2023-04-12T00:09:51;98073.63;;;9.59;34.36
63321;BME280;49449;48.800;9.534;2023-04-12T00:12:19;98077.63;;;9.61;34.45
63321;BME280;49449;48.800;9.534;2023-04-12T00:14:47;98061.81;;;9.61;34.21
63321;BME280;49449;48.800;9.534;2023-04-12T00:17:14;98048.41;;;9.63;34.22
63321;BME280;49449;48.800;9.534;2023-04-12T00:19:44;98054.69;;;9.62;34.07
63321;BME280;49449;48.800;9.534;2023-04-12T00:22:13;98049.41;;;9.62;34.11
63321;BME280;49449;48.800;9.534;2023-04-12T00:24:41;98051.25;;;9.61;34.32
63321;BME280;49449;48.800;9.534;2023-04-12T00:27:09;98047.25;;;9.59;34.42
63321;BME280;49449;48.800;9.534;2023-04-12T00:29:37;98048.06;;;9.59;34.30
63321;BME280;49449;48.800;9.534;2023-04-12T00:32:04;98047.25;;;9.59;34.72
63321;BME280;49449;48.800;9.534;2023-04-12T00:34:32;98055.16;;;9.59;34.67
63321;BME280;49449;48.800;9.534;2023-04-12T00:37:01;98054.13;;;9.60;34.91
63321;BME280;49449;48.800;9.534;2023-04-12T00:39:29;98056.75;;;9.60;34.71
63321;BME280;49449;48.800;9.534;2023-04-12T00:42:02;98055.75;;;9.61;34.94
63321;BME280;49449;48.800;9.534;2023-04-12T00:44:31;98053.34;;;9.59;35.51
63321;BME280;49449;48.800;9.534;2023-04-12T00:46:59;98053.56;;;9.58;35.47
63321;BME280;49449;48.800;9.534;2023-04-12T00:49:27;98049.09;;;9.58;35.77
63321;BME280;49449;48.800;9.534;2023-04-12T00:51:57;98042.13;;;9.52;36.69
63321;BME280;49449;48.800;9.534;2023-04-12T00:54:32;98042.47;;;9.44;36.32
63321;BME280;49449;48.800;9.534;2023-04-12T00:57:01;98039.03;;;9.43;36.11
63321;BME280;49449;48.800;9.534;2023-04-12T00:59:29;98040.63;;;9.44;36.01
63321;BME280;49449;48.800;9.534;2023-04-12T01:01:58;98029.06;;;9.45;36.22
63321;BME280;49449;48.800;9.534;2023-04-12T01:04:26;98030.63;;;9.46;36.34
63321;BME280;49449;48.800;9.534;2023-04-12T01:07:07;98028.00;;;9.46;36.43
63321;BME280;49449;48.800;9.534;2023-04-12T01:09:49;98024.56;;;9.46;36.77
63321;BME280;49449;48.800;9.534;2023-04-12T01:12:26;98022.50;;;9.48;36.82
63321;BME280;49449;48.800;9.534;2023-04-12T01:15:03;98026.88;;;9.42;37.25
63321;BME280;49449;48.800;9.534;2023-04-12T01:17:36;98017.13;;;9.43;37.68
63321;BME280;49449;48.800;9.534;2023-04-12T01:20:08;98017.13;;;9.43;37.86
63321;BME280;49449;48.800;9.534;2023-04-12T01:23:16;98019.41;;;9.39;38.12
63321;BME280;49449;48.800;9.534;2023-04-12T01:26:01;98005.38;;;9.22;38.17
63321;BME280;49449;48.800;9.534;2023-04-12T01:28:38;98012.13;;;9.18;38.38
63321;BME280;49449;48.800;9.534;2023-04-12T01:31:09;98010.16;;;9.25;38.71
63321;BME280;49449;48.800;9.534;2023-04-12T01:33:39;98004.88;;;9.25;38.68
63321;BME280;49449;48.800;9.534;2023-04-12T01:36:13;98007.88;;;9.28;39.04
63321;BME280;49449;48.800;9.534;2023-04-12T01:38:42;98006.06;;;9.29;39.05
63321;BME280;49449;48.800;9.534;2023-04-12T01:41:11;98001.44;;;9.36;39.34
63321;BME280;49449;48.800;9.534;2023-04-12T01:43:44;97993.31;;;9.38;39.72
63321;BME280;49449;48.800;9.534;2023-04-12T01:46:15;97996.28;;;9.41;39.98
63321;BME280;49449;48.800;9.534;2023-04-12T01:48:48;97998.44;;;9.44;39.86
63321;BME280;49449;48.800;9.534;2023-04-12T01:51:22;97999.00;;;9.46;40.14
63321;BME280;49449;48.800;9.534;2023-04-12T01:53:59;97988.25;;;9.36;40.45
63321;BME280;49449;48.800;9.534;2023-04-12T01:56:30;97988.38;;;9.29;40.45
63321;BME280;49449;48.800;9.534;2023-04-12T01:59:01;97988.16;;;9.19;40.90
63321;BME280;49449;48.800;9.534;2023-04-12T02:01:30;97977.28;;;9.16;41.39
63321;BME280;49449;48.800;9.534;2023-04-12T02:03:58;97980.94;;;9.15;41.32
63321;BME280;49449;48.800;9.534;2023-04-12T02:06:30;97985.81;;;9.06;41.71
63321;BME280;49449;48.800;9.534;2023-04-12T02:09:01;97982.91;;;9.07;41.60
63321;BME280;49449;48.800;9.534;2023-04-12T02:11:29;97974.22;;;9.07;42.02
63321;BME280;49449;48.800;9.534;2023-04-12T02:13:57;97974.78;;;9.09;41.97
63321;BME280;49449;48.800;9.534;2023-04-12T02:16:26;97964.00;;;9.10;41.93
63321;BME280;49449;48.800;9.534;2023-04-12T02:18:54;97953.00;;;9.14;41.84
63321;BME280;49449;48.800;9.534;2023-04-12T02:21:22;97945.44;;;9.17;42.06
63321;BME280;49449;48.800;9.534;2023-04-12T02:23:50;97933.63;;;9.20;42.13
63321;BME280;49449;48.800;9.534;2023-04-12T02:26:18;97931.31;;;9.23;42.13
63321;BME280;49449;48.800;9.534;2023-04-12T02:28:46;97929.00;;;9.27;42.11
63321;BME280;49449;48.800;9.534;2023-04-12T02:31:14;97926.16;;;9.28;42.11
63321;BME280;49449;48.800;9.534;2023-04-12T02:33:43;97922.16;;;9.26;41.79
63321;BME280;49449;48.800;9.534;2023-04-12T02:36:12;97913.19;;;9.27;41.85
63321;BME280;49449;48.800;9.534;2023-04-12T02:38:39;97902.09;;;9.25;41.81
63321;BME280;49449;48.800;9.534;2023-04-12T02:41:07;97907.94;;;9.27;41.91
63321;BME280;49449;48.800;9.534;2023-04-12T02:43:35;97898.19;;;9.27;41.85
63321;BME280;49449;48.800;9.534;2023-04-12T02:46:04;97898.44;;;9.26;41.85
63321;BME280;49449;48.800;9.534;2023-04-12T02:48:32;97886.84;;;9.27;41.83
63321;BME280;49449;48.800;9.534;2023-04-12T02:51:01;97886.84;;;9.27;42.06
63321;BME280;49449;48.800;9.534;2023-04-12T02:53:28;97880.78;;;9.26;41.67
63321;BME280;49449;48.800;9.534;2023-04-12T02:55:56;97879.41;;;9.24;41.95
63321;BME280;49449;48.800;9.534;2023-04-12T02:58:26;97883.31;;;9.21;41.84
63321;BME280;49449;48.800;9.534;2023-04-12T03:00:54;97870.94;;;9.22;42.37
63321;BME280;49449;48.800;9.534;2023-04-12T03:03:23;97867.50;;;9.21;42.35
63321;BME280;49449;48.800;9.534;2023-04-12T03:05:51;97872.53;;;9.23;42.65
63321;BME280;49449;48.800;9.534;2023-04-12T03:08:21;97867.50;;;9.21;42.68
63321;BME280;49449;48.800;9.534;2023-04-12T03:10:49;97860.16;;;9.23;42.56
63321;BME280;49449;48.800;9.534;2023-04-12T03:13:16;97853.63;;;9.26;42.60
63321;BME280;49449;48.800;9.534;2023-04-12T03:15:53;97855.22;;;9.27;42.48
63321;BME280;49449;48.800;9.534;2023-04-12T03:18:21;97844.81;;;9.20;42.57
63321;BME280;49449;48.800;9.534;2023-04-12T03:20:49;97837.94;;;9.19;42.59
63321;BME280;49449;48.800;9.534;2023-04-12T03:23:17;97838.50;;;9.21;42.56
63321;BME280;49449;48.800;9.534;2023-04-12T03:25:47;97832.44;;;9.21;42.63
63321;BME280;49449;48.800;9.534;2023-04-12T03:28:15;97828.91;;;9.15;42.80
63321;BME280;49449;48.800;9.534;2023-04-12T03:30:42;97819.97;;;9.16;42.66
63321;BME280;49449;48.800;9.534;2023-04-12T03:33:11;97813.91;;;9.16;42.71
63321;BME280;49449;48.800;9.534;2023-04-12T03:35:39;97808.38;;;9.17;42.64
63321;BME280;49449;48.800;9.534;2023-04-12T03:38:06;97800.47;;;9.17;42.63
63321;BME280;49449;48.800;9.534;2023-04-12T03:40:34;97794.44;;;9.17;42.80
63321;BME280;49449;48.800;9.534;2023-04-12T03:43:03;97787.31;;;9.17;42.70
63321;BME280;49449;48.800;9.534;2023-04-12T03:45:31;97792.56;;;9.17;42.75
63321;BME280;49449;48.800;9.534;2023-04-12T03:47:59;97782.28;;;9.16;42.84
63321;BME280;49449;48.800;9.534;2023-04-12T03:50:26;97779.88;;;9.14;42.93
63321;BME280;49449;48.800;9.534;2023-04-12T03:52:57;97780.44;;;9.16;42.79
63321;BME280;49449;48.800;9.534;2023-04-12T03:55:24;97768.31;;;9.15;43.19
63321;BME280;49449;48.800;9.534;2023-04-12T03:57:52;97765.16;;;9.18;43.06
63321;BME280;49449;48.800;9.534;2023-04-12T04:00:23;97770.22;;;9.20;43.11
63321;BME280;49449;48.800;9.534;2023-04-12T04:02:51;97765.75;;;9.20;43.01
63321;BME280;49449;48.800;9.534;2023-04-12T04:05:19;97766.78;;;9.19;43.18
63321;BME280;49449;48.800;9.534;2023-04-12T04:07:47;97761.75;;;9.18;43.36
63321;BME280;49449;48.800;9.534;2023-04-12T04:10:14;97761.75;;;9.18;43.16
63321;BME280;49449;48.800;9.534;2023-04-12T04:12:42;97761.50;;;9.19;43.15
63321;BME280;49449;48.800;9.534;2023-04-12T04:15:10;97746.25;;;9.21;43.32
63321;BME280;49449;48.800;9.534;2023-04-12T04:17:39;97750.19;;;9.19;43.64
63321;BME280;49449;48.800;9.534;2023-04-12T04:20:08;97750.75;;;9.21;43.68
63321;BME280;49449;48.800;9.534;2023-04-12T04:22:37;97751.19;;;9.18;43.60
63321;BME280;49449;48.800;9.534;2023-04-12T04:25:06;97744.09;;;9.18;43.35
63321;BME280;49449;48.800;9.534;2023-04-12T04:27:34;97742.19;;;9.14;43.35
63321;BME280;49449;48.800;9.534;2023-04-12T04:30:05;97738.44;;;9.09;43.20
63321;BME280;49449;48.800;9.534;2023-04-12T04:32:33;97732.66;;;9.13;43.10
63321;BME280;49449;48.800;9.534;2023-04-12T04:35:02;97734.41;;;9.07;43.26
63321;BME280;49449;48.800;9.534;2023-04-12T04:37:30;97725.50;;;9.08;43.28
63321;BME280;49449;48.800;9.534;2023-04-12T04:40:00;97716.75;;;9.07;43.18
63321;BME280;49449;48.800;9.534;2023-04-12T04:42:33;97721.81;;;9.09;43.03
63321;BME280;49449;48.800;9.534;2023-04-12T04:45:02;97717.34;;;9.09;43.23
63321;BME280;49449;48.800;9.534;2023-04-12T04:47:38;97717.59;;;9.08;43.40
63321;BME280;49449;48.800;9.534;2023-04-12T04:50:07;97720.44;;;9.06;43.42
63321;BME280;49449;48.800;9.534;2023-04-12T04:52:35;97710.63;;;9.02;43.61
63321;BME280;49449;48.800;9.534;2023-04-12T04:55:05;97708.53;;;9.04;43.79
63321;BME280;49449;48.800;9.534;2023-04-12T04:57:34;97704.56;;;9.01;44.03
63321;BME280;49449;48.800;9.534;2023-04-12T05:00:02;97706.97;;;9.03;43.57
63321;BME280;49449;48.800;9.534;2023-04-12T05:02:36;97706.97;;;9.03;43.76
63321;BME280;49449;48.800;9.534;2023-04-12T05:05:07;97696.66;;;9.01;43.70
63321;BME280;49449;48.800;9.534;2023-04-12T05:07:35;97697.91;;;8.99;43.88
63321;BME280;49449;48.800;9.534;2023-04-12T05:10:04;97708.44;;;8.99;43.97
63321;BME280;49449;48.800;9.534;2023-04-12T05:12:32;97700.53;;;8.99;43.99
63321;BME280;49449;48.800;9.534;2023-04-12T05:15:00;97701.91;;;9.01;44.02
63321;BME280;49449;48.800;9.534;2023-04-12T05:17:31;97696.41;;;9.03;44.17
63321;BME280;49449;48.800;9.534;2023-04-12T05:19:59;97696.75;;;9.06;43.88
63321;BME280;49449;48.800;9.534;2023-04-12T05:22:28;97699.94;;;9.08;44.04
63321;BME280;49449;48.800;9.534;2023-04-12T05:24:56;97695.22;;;9.10;44.45
63321;BME280;49449;48.800;9.534;2023-04-12T05:27:24;97699.47;;;9.11;44.43
63321;BME280;49449;48.800;9.534;2023-04-12T05:29:53;97687.41;;;9.16;44.46
63321;BME280;49449;48.800;9.534;2023-04-12T05:32:20;97683.97;;;9.15;44.41
63321;BME280;49449;48.800;9.534;2023-04-12T05:34:48;97683.97;;;9.15;44.53
63321;BME280;49449;48.800;9.534;2023-04-12T05:37:16;97682.91;;;9.16;44.51
63321;BME280;49449;48.800;9.534;2023-04-12T05:39:45;97684.63;;;9.22;44.50
63321;BME280;49449;48.800;9.534;2023-04-12T05:42:12;97680.13;;;9.23;44.58
63321;BME280;49449;48.800;9.534;2023-04-12T05:44:40;97684.38;;;9.24;44.51
63321;BME280;49449;48.800;9.534;2023-04-12T05:47:10;97671.75;;;9.26;44.38
63321;BME280;49449;48.800;9.534;2023-04-12T05:49:37;97676.28;;;9.30;44.56
63321;BME280;49449;48.800;9.534;2023-04-12T05:52:05;97676.28;;;9.30;44.53
63321;BME280;49449;48.800;9.534;2023-04-12T05:54:33;97677.66;;;9.33;44.65
63321;BME280;49449;48.800;9.534;2023-04-12T05:57:03;97669.75;;;9.33;44.66
63321;BME280;49449;48.800;9.534;2023-04-12T05:59:31;97666.09;;;9.34;44.78
63321;BME280;49449;48.800;9.534;2023-04-12T06:01:59;97654.88;;;9.27;44.89
63321;BME280;49449;48.800;9.534;2023-04-12T06:04:27;97655.16;;;9.25;44.75
63321;BME280;49449;48.800;9.534;2023-04-12T06:06:57;97650.13;;;9.24;44.68
63321;BME280;49449;48.800;9.534;2023-04-12T06:09:25;97638.50;;;9.25;44.33
63321;BME280;49449;48.800;9.534;2023-04-12T06:11:53;97631.81;;;9.17;44.08
63321;BME280;49449;48.800;9.534;2023-04-12T06:14:23;97631.66;;;9.24;43.98
63321;BME280;49449;48.800;9.534;2023-04-12T06:16:51;97632.13;;;9.04;44.30
63321;BME280;49449;48.800;9.534;2023-04-12T06:19:19;97623.41;;;8.86;44.87
63321;BME280;49449;48.800;9.534;2023-04-12T06:21:46;97615.69;;;8.97;44.37
63321;BME280;49449;48.800;9.534;2023-04-12T06:24:14;97615.91;;;8.95;44.60
63321;BME280;49449;48.800;9.534;2023-04-12T06:26:42;97601.25;;;8.99;44.34
63321;BME280;49449;48.800;9.534;2023-04-12T06:29:12;97599.63;;;8.98;44.46
63321;BME280;49449;48.800;9.534;2023-04-12T06:31:41;97601.09;;;8.89;44.64
63321;BME280;49449;48.800;9.534;2023-04-12T06:34:09;97594.53;;;8.91;44.73
63321;BME280;49449;48.800;9.534;2023-04-12T06:36:36;97587.75;;;8.96;44.49
63321;BME280;49449;48.800;9.534;2023-04-12T06:39:06;97581.00;;;8.71;45.20
63321;BME280;49449;48.800;9.534;2023-04-12T06:41:34;97571.94;;;8.79;44.96
63321;BME280;49449;48.800;9.534;2023-04-12T06:44:02;97567.06;;;8.87;44.68
63321;BME280;49449;48.800;9.534;2023-04-12T06:46:30;97563.06;;;8.68;45.67
63321;BME280;49449;48.800;9.534;2023-04-12T06:48:59;97549.88;;;8.51;45.77
63321;BME280;49449;48.800;9.534;2023-04-12T06:51:27;97551.00;;;8.55;45.74
63321;BME280;49449;48.800;9.534;2023-04-12T06:53:54;97545.25;;;8.58;45.64
63321;BME280;49449;48.800;9.534;2023-04-12T06:56:23;97546.94;;;8.64;45.54
63321;BME280;49449;48.800;9.534;2023-04-12T06:58:50;97531.44;;;8.51;45.66
63321;BME280;49449;48.800;9.534;2023-04-12T07:01:18;97531.47;;;8.68;45.59
63321;BME280;49449;48.800;9.534;2023-04-12T07:03:46;97530.34;;;8.81;45.25
63321;BME280;49449;48.800;9.534;2023-04-12T07:06:15;97521.97;;;8.84;45.26
63321;BME280;49449;48.800;9.534;2023-04-12T07:08:49;97520.88;;;8.80;45.26
63321;BME280;49449;48.800;9.534;2023-04-12T07:11:18;97513.09;;;8.90;45.08
63321;BME280;49449;48.800;9.534;2023-04-12T07:13:47;97502.84;;;8.88;45.18
63321;BME280;49449;48.800;9.534;2023-04-12T07:16:15;97512.00;;;8.86;45.13
63321;BME280;49449;48.800;9.534;2023-04-12T07:18:43;97507.19;;;9.00;45.00
63321;BME280;49449;48.800;9.534;2023-04-12T07:21:11;97501.53;;;9.08;44.84
63321;BME280;49449;48.800;9.534;2023-04-12T07:23:41;97490.13;;;8.85;45.44
63321;BME280;49449;48.800;9.534;2023-04-12T07:26:08;97488.91;;;8.93;44.99
63321;BME280;49449;48.800;9.534;2023-04-12T07:28:36;97485.88;;;9.01;45.26
63321;BME280;49449;48.800;9.534;2023-04-12T07:31:05;97484.41;;;8.88;45.08
63321;BME280;49449;48.800;9.534;2023-04-12T07:33:33;97475.59;;;9.00;45.10
63321;BME280;49449;48.800;9.534;2023-04-12T07:36:03;97474.88;;;9.04;45.25
63321;BME280;49449;48.800;9.534;2023-04-12T07:38:31;97462.56;;;9.10;45.30
63321;BME280;49449;48.800;9.534;2023-04-12T07:41:00;97456.03;;;9.18;45.21
63321;BME280;49449;48.800;9.534;2023-04-12T07:43:28;97461.94;;;9.25;44.71
63321;BME280;49449;48.800;9.534;2023-04-12T07:45:56;97453.47;;;9.23;44.92
63321;BME280;49449;48.800;9.534;2023-04-12T07:48:24;97445.94;;;9.32;45.05
63321;BME280;49449;48.800;9.534;2023-04-12T07:50:51;97444.47;;;9.41;45.17
63321;BME280;49449;48.800;9.534;2023-04-12T07:53:20;97434.75;;;9.46;45.17
63321;BME280;49449;48.800;9.534;2023-04-12T07:55:49;97421.09;;;9.49;44.46
63321;BME280;49449;48.800;9.534;2023-04-12T07:58:19;97415.88;;;9.55;44.62
63321;BME280;49449;48.800;9.534;2023-04-12T08:00:48;97412.75;;;9.58;44.75
63321;BME280;49449;48.800;9.534;2023-04-12T08:03:17;97398.22;;;9.55;44.63
63321;BME280;49449;48.800;9.534;2023-04-12T08:05:45;97398.19;;;9.50;44.84
63321;BME280;49449;48.800;9.534;2023-04-12T08:08:18;97392.38;;;9.53;44.88
63321;BME280;49449;48.800;9.534;2023-04-12T08:10:47;97386.38;;;9.58;44.71
63321;BME280;49449;48.800;9.534;2023-04-12T08:13:17;97379.22;;;9.53;44.74
63321;BME280;49449;48.800;9.534;2023-04-12T08:15:45;97376.03;;;9.51;45.31
63321;BME280;49449;48.800;9.534;2023-04-12T08:18:13;97384.34;;;9.38;45.30
63321;BME280;49449;48.800;9.534;2023-04-12T08:20:41;97380.78;;;9.27;45.65
63321;BME280;49449;48.800;9.534;2023-04-12T08:23:10;97378.78;;;9.34;45.28
63321;BME280;49449;48.800;9.534;2023-04-12T08:25:38;97380.16;;;9.42;45.33
63321;BME280;49449;48.800;9.534;2023-04-12T08:28:06;97381.00;;;9.47;45.21
63321;BME280;49449;48.800;9.534;2023-04-12T08:30:35;97363.84;;;9.45;45.27
63321;BME280;49449;48.800;9.534;2023-04-12T08:33:03;97372.75;;;9.39;45.31
63321;BME280;49449;48.800;9.534;2023-04-12T08:35:31;97371.91;;;9.33;45.34
63321;BME280;49449;48.800;9.534;2023-04-12T08:37:59;97367.06;;;9.25;45.54
63321;BME280;49449;48.800;9.534;2023-04-12T08:40:32;97368.97;;;9.29;45.39
63321;BME280;49449;48.800;9.534;2023-04-12T08:43:00;97361.78;;;9.25;45.82
63321;BME280;49449;48.800;9.534;2023-04-12T08:45:31;97363.38;;;9.26;45.62
63321;BME280;49449;48.800;9.534;2023-04-12T08:48:04;97362.38;;;9.32;45.88
63321;BME280;49449;48.800;9.534;2023-04-12T08:50:32;97354.34;;;9.44;45.41
63321;BME280;49449;48.800;9.534;2023-04-12T08:53:00;97360.34;;;9.39;45.48
63321;BME280;49449;48.800;9.534;2023-04-12T08:55:29;97358.31;;;9.46;45.36
63321;BME280;49449;48.800;9.534;2023-04-12T08:57:57;97352.78;;;9.48;45.53
63321;BME280;49449;48.800;9.534;2023-04-12T09:00:25;97351.03;;;9.54;45.40
63321;BME280;49449;48.800;9.534;2023-04-12T09:02:53;97343.13;;;9.59;45.39
63321;BME280;49449;48.800;9.534;2023-04-12T09:05:29;97342.88;;;9.60;45.20
63321;BME280;49449;48.800;9.534;2023-04-12T09:07:57;97344.03;;;9.70;45.46
63321;BME280;49449;48.800;9.534;2023-04-12T09:10:33;97341.69;;;9.73;44.78
63321;BME280;49449;48.800;9.534;2023-04-12T09:13:02;97335.91;;;9.76;44.93
63321;BME280;49449;48.800;9.534;2023-04-12T09:15:30;97335.41;;;9.79;44.85
63321;BME280;49449;48.800;9.534;2023-04-12T09:18:06;97329.22;;;9.63;45.01
63321;BME280;49449;48.800;9.534;2023-04-12T09:20:37;97326.38;;;9.70;45.24
63321;BME280;49449;48.800;9.534;2023-04-12T09:23:22;97324.66;;;9.59;45.77
63321;BME280;49449;48.800;9.534;2023-04-12T09:25:50;97324.19;;;9.62;45.59
63321;BME280;49449;48.800;9.534;2023-04-12T09:28:23;97319.03;;;9.77;45.54
63321;BME280;49449;48.800;9.534;2023-04-12T09:30:52;97308.06;;;9.85;45.28
63321;BME280;49449;48.800;9.534;2023-04-12T09:33:21;97312.53;;;9.85;45.69
63321;BME280;49449;48.800;9.534;2023-04-12T09:35:58;97310.91;;;9.52;46.82
63321;BME280;49449;48.800;9.534;2023-04-12T09:38:27;97304.25;;;9.44;46.42
63321;BME280;49449;48.800;9.534;2023-04-12T09:40:54;97315.53;;;9.66;46.08
63321;BME280;49449;48.800;9.534;2023-04-12T09:43:35;97303.75;;;9.79;46.01
63321;BME280;49449;48.800;9.534;2023-04-12T09:46:11;97299.91;;;9.92;46.48
63321;BME280;49449;48.800;9.534;2023-04-12T09:48:39;97287.28;;;9.94;46.12
63321;BME280;49449;48.800;9.534;2023-04-12T09:51:09;97291.78;;;9.99;46.14
63321;BME280;49449;48.800;9.534;2023-04-12T09:53:40;97283.34;;;9.97;45.42
63321;BME280;49449;48.800;9.534;2023-04-12T09:56:12;97277.59;;;9.73;46.07
63321;BME280;49449;48.800;9.534;2023-04-12T09:58:40;97288.06;;;9.95;46.08
63321;BME280;49449;48.800;9.534;2023-04-12T10:01:09;97286.84;;;9.75;45.88
63321;BME280;49449;48.800;9.534;2023-04-12T10:03:37;97294.88;;;9.85;45.92
63321;BME280;49449;48.800;9.534;2023-04-12T10:06:06;97289.53;;;9.80;46.42
63321;BME280;49449;48.800;9.534;2023-04-12T10:08:37;97284.25;;;9.80;46.68
63321;BME280;49449;48.800;9.534;2023-04-12T10:11:05;97280.41;;;9.93;47.95
63321;BME280;49449;48.800;9.534;2023-04-12T10:13:35;97273.44;;;10.19;46.07
63321;BME280;49449;48.800;9.534;2023-04-12T10:16:04;97269.81;;;10.31;46.44
63321;BME280;49449;48.800;9.534;2023-04-12T10:18:35;97267.75;;;10.43;45.84
63321;BME280;49449;48.800;9.534;2023-04-12T10:21:03;97270.41;;;10.48;45.90
63321;BME280;49449;48.800;9.534;2023-04-12T10:23:31;97267.28;;;10.56;45.57
63321;BME280;49449;48.800;9.534;2023-04-12T10:26:03;97267.81;;;10.58;46.18
63321;BME280;49449;48.800;9.534;2023-04-12T10:28:31;97268.38;;;10.66;45.46
63321;BME280;49449;48.800;9.534;2023-04-12T10:30:59;97257.84;;;10.76;45.15
63321;BME280;49449;48.800;9.534;2023-04-12T10:33:29;97259.69;;;10.70;45.82
63321;BME280;49449;48.800;9.534;2023-04-12T10:35:58;97255.47;;;10.74;45.39
63321;BME280;49449;48.800;9.534;2023-04-12T10:38:44;97262.91;;;10.83;45.11
63321;BME280;49449;48.800;9.534;2023-04-12T10:41:15;97258.72;;;10.92;45.27
63321;BME280;49449;48.800;9.534;2023-04-12T10:43:44;97264.28;;;10.95;45.06
63321;BME280;49449;48.800;9.534;2023-04-12T10:46:45;97259.50;;;10.97;44.92
63321;BME280;49449;48.800;9.534;2023-04-12T10:49:13;97257.94;;;11.07;45.04
63321;BME280;49449;48.800;9.534;2023-04-12T10:52:12;97247.63;;;11.10;45.56
63321;BME280;49449;48.800;9.534;2023-04-12T10:54:43;97246.34;;;11.23;45.51
63321;BME280;49449;48.800;9.534;2023-04-12T10:57:41;97247.66;;;11.26;44.98
63321;BME280;49449;48.800;9.534;2023-04-12T11:00:10;97245.81;;;11.36;45.04
63321;BME280;49449;48.800;9.534;2023-04-12T11:03:05;97245.28;;;11.34;45.15
63321;BME280;49449;48.800;9.534;2023-04-12T11:05:55;97240.78;;;11.40;45.41
63321;BME280;49449;48.800;9.534;2023-04-12T11:08:23;97239.50;;;11.48;45.26
63321;BME280;49449;48.800;9.534;2023-04-12T11:10:58;97236.28;;;11.51;45.34
63321;BME280;49449;48.800;9.534;2023-04-12T11:13:28;97232.88;;;11.61;45.52
63321;BME280;49449;48.800;9.534;2023-04-12T11:16:00;97227.31;;;11.62;45.47
63321;BME280;49449;48.800;9.534;2023-04-12T11:18:28;97228.88;;;11.68;45.70
63321;BME280;49449;48.800;9.534;2023-04-12T11:20:57;97207.19;;;11.71;45.51
63321;BME280;49449;48.800;9.534;2023-04-12T11:23:25;97201.91;;;11.76;46.20
63321;BME280;49449;48.800;9.534;2023-04-12T11:25:53;97204.00;;;11.90;45.92
63321;BME280;49449;48.800;9.534;2023-04-12T11:28:21;97197.38;;;11.98;45.05
63321;BME280;49449;48.800;9.534;2023-04-12T11:30:55;97187.06;;;11.91;44.25
63321;BME280;49449;48.800;9.534;2023-04-12T11:33:33;97198.69;;;11.90;44.10
63321;BME280;49449;48.800;9.534;2023-04-12T11:36:03;97191.84;;;11.68;44.63
63321;BME280;49449;48.800;9.534;2023-04-12T11:38:33;97187.59;;;11.83;44.14
63321;BME280;49449;48.800;9.534;2023-04-12T11:41:02;97182.03;;;11.94;44.18
63321;BME280;49449;48.800;9.534;2023-04-12T11:43:30;97178.56;;;12.04;43.76
63321;BME280;49449;48.800;9.534;2023-04-12T11:46:00;97175.13;;;11.99;43.29
63321;BME280;49449;48.800;9.534;2023-04-12T11:48:28;97163.25;;;11.70;43.41
63321;BME280;49449;48.800;9.534;2023-04-12T11:50:55;97173.06;;;11.60;42.40
63321;BME280;49449;48.800;9.534;2023-04-12T11:53:29;97176.75;;;11.84;43.13
63321;BME280;49449;48.800;9.534;2023-04-12T11:55:57;97170.16;;;11.66;42.49
63321;BME280;49449;48.800;9.534;2023-04-12T11:58:26;97168.06;;;11.53;42.83
63321;BME280;49449;48.800;9.534;2023-04-12T12:00:55;97164.88;;;11.66;42.40
63321;BME280;49449;48.800;9.534;2023-04-12T12:03:25;97174.94;;;11.49;42.33
63321;BME280;49449;48.800;9.534;2023-04-12T12:05:53;97181.84;;;11.40;41.84
63321;BME280;49449;48.800;9.534;2023-04-12T12:08:21;97178.09;;;11.46;42.11
63321;BME280;49449;48.800;9.534;2023-04-12T12:10:50;97166.47;;;11.62;42.04
63321;BME280;49449;48.800;9.534;2023-04-12T12:13:42;97163.78;;;11.77;41.97
63321;BME280;49449;48.800;9.534;2023-04-12T12:16:10;97165.97;;;11.55;40.94
63321;BME280;49449;48.800;9.534;2023-04-12T12:18:40;97163.78;;;11.83;40.99
63321;BME280;49449;48.800;9.534;2023-04-12T12:21:08;97160.06;;;11.99;41.15
63321;BME280;49449;48.800;9.534;2023-04-12T12:23:36;97161.94;;;11.78;41.32
63321;BME280;49449;48.800;9.534;2023-04-12T12:26:05;97153.94;;;12.04;41.01
63321;BME280;49449;48.800;9.534;2023-04-12T12:28:42;97149.09;;;12.21;40.66
63321;BME280;49449;48.800;9.534;2023-04-12T12:31:10;97160.47;;;12.27;40.32
63321;BME280;49449;48.800;9.534;2023-04-12T12:33:40;97151.03;;;12.00;40.67
63321;BME280;49449;48.800;9.534;2023-04-12T12:36:11;97144.47;;;11.92;40.76
63321;BME280;49449;48.800;9.534;2023-04-12T12:38:40;97137.75;;;12.16;40.64
63321;BME280;49449;48.800;9.534;2023-04-12T12:41:18;97144.97;;;11.94;40.82
63321;BME280;49449;48.800;9.534;2023-04-12T12:43:47;97143.53;;;12.23;40.62
63321;BME280;49449;48.800;9.534;2023-04-12T12:46:16;97136.47;;;12.03;39.75
63321;BME280;49449;48.800;9.534;2023-04-12T12:48:46;97134.41;;;11.84;40.09
63321;BME280;49449;48.800;9.534;2023-04-12T12:51:15;97135.91;;;12.11;40.22
63321;BME280;49449;48.800;9.534;2023-04-12T12:53:43;97120.44;;;12.33;40.07
63321;BME280;49449;48.800;9.534;2023-04-12T12:56:12;97110.34;;;12.41;39.45
63321;BME280;49449;48.800;9.534;2023-04-12T12:58:40;97094.09;;;12.58;39.28
63321;BME280;49449;48.800;9.534;2023-04-12T13:01:08;97110.22;;;12.61;39.54
63321;BME280;49449;48.800;9.534;2023-04-12T13:03:36;97113.66;;;12.62;39.13
63321;BME280;49449;48.800;9.534;2023-04-12T13:06:06;97107.59;;;12.56;39.43
63321;BME280;49449;48.800;9.534;2023-04-12T13:08:34;97100.13;;;12.63;39.26
63321;BME280;49449;48.800;9.534;2023-04-12T13:11:02;97107.97;;;12.84;39.12
63321;BME280;49449;48.800;9.534;2023-04-12T13:13:31;97096.69;;;12.63;39.24
63321;BME280;49449;48.800;9.534;2023-04-12T13:15:58;97096.59;;;12.78;39.09
63321;BME280;49449;48.800;9.534;2023-04-12T13:18:26;97090.84;;;12.66;39.31
63321;BME280;49449;48.800;9.534;2023-04-12T13:20:54;97093.94;;;12.78;38.69
63321;BME280;49449;48.800;9.534;2023-04-12T13:23:23;97086.78;;;12.84;38.84